Terminal Aerodrome Forecast
Issued by NWS

Home | Current Version | Previous Version | Text Only | Print | Product List | Glossary On
Versions: 1 2 3 4 5 6 7 8 9 10 11 12 13 14 15 16 17 18 19
944
FTUS43 KAPX 240525
TAFPLN
TAF
KPLN 240525Z 2406/2506 31004KT P6SM SCT080
     FM241300 29006KT P6SM SCT250
     FM241700 28008KT P6SM BKN060
     FM250200 30004KT P6SM BKN050=

USA.gov is the U.S. government's official web portal to all federal, state and local government web resources and services.